Nearby METAR Reports

 

KSNK - Snyder/Winston, Texas, USA
Distance from station: SSE 25mi, 41km
Updated: Tue, 19-Nov-2019 12:55am CST
Haze, Overcast
Haze, Overcast
 Wind from ESE
Wind: ESE 6 mph , 9 km/h
Temperature: 55°F , 13°C
Dew Point: 36°F , 2°C
Humidity: 47%
Barometer: 29.96 inHg , 1014.6 hPa
Summary: Haze
Clouds: Overcast
Visibility: 1 mile , 2 km
Cloud details: Overcast 700 ft
2019/11/19 06:55 KSNK 190655Z AUTO 12005KT 1SM HZ VV007 13/02 A2996 RMK AO2 T01250017
KSWW - Sweetwater, Texas, USA
Distance from station: SE 56mi, 90km
Updated: Tue, 19-Nov-2019 12:55am CST
Clear
Clear
 Wind from calm
Wind: Calm
Temperature: 54°F , 12°C
Dew Point: 37°F , 3°C
Humidity: 54%
Barometer: 29.98 inHg , 1015.2 hPa
Clouds: Clear
Visibility: 10 miles , 16 km
2019/11/19 06:55 KSWW 190655Z AUTO 00000KT 10SM CLR 12/03 A2998 RMK AO2 T01160026
 
KLBB - Lubbock, Texas, USA
Distance from station: NW 59mi, 94km
Updated: Tue, 19-Nov-2019 12:53am CST
Few Clouds
Few Clouds
 Wind from calm
Wind: Calm
Temperature: 43°F , 6°C
Dew Point: 32°F , 0°C
Humidity: 66%
Barometer: 29.98 inHg , 1015.2 hPa
Clouds: Few Clouds
Visibility: 10 miles , 16 km
Cloud details: Few Clouds 19000 ft
2019/11/19 06:53 KLBB 190653Z 00000KT 10SM FEW190 06/00 A2998 RMK AO2 SLP126 T00610000
KPVW - Plainview, Texas, USA
Distance from station: NNW 85mi, 137km
Updated: Tue, 19-Nov-2019 12:55am CST
Clear
Clear
 Wind from calm
Wind: Calm
Temperature: 37°F , 3°C
Dew Point: 25°F , -4°C
Humidity: 60%
Barometer: 29.98 inHg , 1015.2 hPa
Clouds: Clear
Visibility: 10 miles , 16 km
2019/11/19 06:55 KPVW 190655Z AUTO 00000KT 10SM CLR 03/M04 A2998 RMK AO2 T00331038
 
KDYS - Dyess Afb/Abilen, Texas, USA
Distance from station: ESE 88mi, 141km
Updated: Tue, 19-Nov-2019 12:56am CST
Clear
Clear
 Wind from SSW
Wind: SSW 5 mph , 7 km/h
Temperature: 45°F , 7°C
Wind Chill: 42°F , 6°C
Dew Point: 34°F , 1°C
Humidity: 66%
Barometer: 29.94 inHg , 1013.9 hPa
Clouds: Clear
Visibility: 10 miles , 16 km
2019/11/19 06:56 KDYS 190656Z AUTO 21004KT 10SM CLR 07/01 A2994 RMK AO2 SLP121 T00720011 PNO FZRANO $
KGNC - Seminole, Texas, USA
Distance from station: WSW 89mi, 144km
Updated: Tue, 19-Nov-2019 12:55am CST
Clear
Clear
 Wind from calm
Wind: Calm
Temperature: 43°F , 6°C
Dew Point: 34°F , 1°C
Humidity: 71%
Barometer: 30.03 inHg , 1016.9 hPa
Clouds: Clear
Visibility: 10 miles , 16 km
2019/11/19 06:55 KGNC 190655Z AUTO 00000KT 10SM CLR 06/01 A3003 RMK AO2 T00580005
 
KE11 - Andrews, Texas, USA
Distance from station: WSW 93mi, 149km
Updated: Tue, 19-Nov-2019 12:55am CST
Clear
Clear
 Wind from NNW
Wind: NNW 5 mph , 7 km/h
Temperature: 46°F , 8°C
Wind Chill: 44°F , 7°C
Dew Point: 32°F , 0°C
Humidity: 57%
Barometer: 29.98 inHg , 1015.2 hPa
Clouds: Clear
Visibility: 10 miles , 16 km
2019/11/19 06:55 KE11 190655Z AUTO 34004KT 10SM CLR 08/00 A2998 RMK AO2 T00780000
KABI - Abilene, Texas, USA
Distance from station: ESE 96mi, 154km
Updated: Tue, 19-Nov-2019 12:52am CST
Clear
Clear
 Wind from S
Wind: S 7 mph , 11 km/h
Temperature: 50°F , 10°C
Wind Chill: 47°F , 8°C
Dew Point: 36°F , 2°C
Humidity: 58%
Barometer: 29.95 inHg , 1014.2 hPa
Clouds: Clear
Visibility: 10 miles , 16 km
2019/11/19 06:52 KABI 190652Z 19006KT 10SM CLR 10/02 A2995 RMK AO2 SLP128 T01000022
 
KMAF - Midland, Texas, USA
Distance from station: SW 96mi, 154km
Updated: Tue, 19-Nov-2019 12:53am CST
Clear
Clear
 Wind from calm
Wind: Calm
Temperature: 46°F , 8°C
Dew Point: 34°F , 1°C
Humidity: 62%
Barometer: 29.97 inHg , 1014.9 hPa
Clouds: Clear
Visibility: 10 miles , 16 km
2019/11/19 06:53 KMAF 190653Z AUTO 00000KT 10SM CLR 08/01 A2997 RMK AO2 SLP119 T00830011
KCDS - Childress, Texas, USA
Distance from station: NNE 110mi, 177km
Updated: Tue, 19-Nov-2019 12:53am CST
Clear
Clear
 Wind from calm
Wind: Calm
Temperature: 48°F , 9°C
Dew Point: 30°F , -1°C
Humidity: 50%
Barometer: 29.94 inHg , 1013.9 hPa
Clouds: Clear
Visibility: 10 miles , 16 km
2019/11/19 06:53 KCDS 190653Z AUTO 00000KT 10SM CLR 09/M01 A2994 RMK AO2 SLP126 T00941011
 
KSJT - San Angelo, Texas, USA
Distance from station: SSE 121mi, 194km
Updated: Tue, 19-Nov-2019 12:51am CST
Clear
Clear
 Wind from SSW
Wind: SSW 6 mph , 9 km/h
Temperature: 48°F , 9°C
Wind Chill: 45°F , 7°C
Dew Point: 37°F , 3°C
Humidity: 66%
Barometer: 29.97 inHg , 1014.9 hPa
Clouds: Clear
Visibility: 10 miles , 16 km
2019/11/19 06:51 KSJT 190651Z AUTO 21005KT 10SM CLR 09/03 A2997 RMK AO2 SLP137 T00940028
KHOB - Hobbs/Lea Co., New Mexico, USA
Distance from station: WSW 122mi, 196km
Updated: Mon, 18-Nov-2019 11:35pm CST
NOT Current
Clear
Clear
 Wind from E
Wind: E 6 mph , 9 km/h
Temperature: 50°F , 10°C
Wind Chill: 48°F , 9°C
Dew Point: 30°F , -1°C
Humidity: 47%
Barometer: 29.99 inHg , 1015.6 hPa
Clouds: Clear
Visibility: 10 miles , 16 km
2019/11/19 05:35 KHOB 190535Z AUTO 08005KT 10SM CLR 10/M01 A2999 RMK AO2
 
KCOM - Coleman Muni, Texas, USA
Distance from station: SE 131mi, 212km
Updated: Tue, 19-Nov-2019 12:55am CST
Clear
Clear
 Wind from W
Wind: W 3 mph , 6 km/h
Temperature: 45°F , 7°C
Dew Point: 36°F , 2°C
Humidity: 71%
Barometer: 29.96 inHg , 1014.6 hPa
Clouds: Clear
Visibility: 10 miles , 16 km
2019/11/19 06:55 KCOM 190655Z AUTO 27003KT 10SM CLR 07/02 A2996 RMK AO2 T00670017
KBKD - Breckenridge, Texas, USA
Distance from station: E 134mi, 215km
Updated: Tue, 19-Nov-2019 12:55am CST
Clear
Clear
 
Temperature: 50°F , 10°C
Dew Point: 37°F , 3°C
Humidity: 62%
Barometer: 29.94 inHg , 1013.9 hPa
Clouds: Clear
Visibility: 10 miles , 16 km
2019/11/19 06:55 KBKD 190655Z AUTO 10SM CLR 10/03 A2994 RMK AO2 T00960025
 
KF05 - Vernon Wilbarger, Texas, USA
Distance from station: NE 137mi, 220km
Updated: Tue, 19-Nov-2019 12:55am CST
Clear
Clear
 Wind from calm
Wind: Calm
Temperature: 50°F , 10°C
Dew Point: 36°F , 2°C
Humidity: 58%
Barometer: 29.93 inHg , 1013.5 hPa
Clouds: Clear
Visibility: 10 miles , 16 km
2019/11/19 06:55 KF05 190655Z AUTO 00000KT 10SM CLR 10/02 A2993 RMK AO1 T00950024